Аэропорт
Шымкент (UAII)

 UAII / CIT
ЗЦ Центральная Азия
Шымкент (UAII)
Шымкент (UAII)
 42.36420, 69.47890  / 1385 ft

 UAII 101730Z 20004MPS CAVOK 28/04 Q1004 R28/0///70 NOSIG RMK QFE716/0955
 TAF UAII 101100Z 1012/1112 26005G10MPS 8000 SCT050 BKN100 TX33/1110Z TN22/1101Z TEMPO 1012/1016 23008G13MPS BKN050CB TEMPO 1016/1103 16003G08MPS
показать схемы
Название сценария Тип сценария Flight Simulator 9 Flight Simulator X Prepar3D v2 Prepar3D v3 Prepar3D v4 Prepar3D v5 xPlane
Recommended scenery for FS9 бесплатный
Recommended scenery for FSX бесплатный


2020 © VATRUS division (Privacy Policy)